Time;durP1;ratioP1;P1;durP2;ratioP2;P2;SDS_P1;SDS_P2;PMS_P1;PMS_P2;Temp;Humidity;BMP_temperature;BMP_pressure;BME280_temperature;BME280_humidity;BME280_pressure;Samples;Min_cycle;Max_cycle;Signal;HPM_P1;HPM_P2
2022/04/07 00:01:34;;;;;;;11.93;4.35;;;21.10;99.90;;;;;;5041477;28;20698;-69
2022/04/07 00:04:01;;;;;;;11.70;6.18;;;21.40;99.90;;;;;;5041091;28;20029;-70
2022/04/07 00:06:28;;;;;;;11.02;3.10;;;21.60;99.90;;;;;;5041733;28;20326;-68
2022/04/07 00:08:54;;;;;;;6.75;1.98;;;21.60;99.90;;;;;;5039138;28;20026;-67
2022/04/07 00:11:22;;;;;;;9.70;1.90;;;21.60;99.90;;;;;;5039420;28;20079;-68
2022/04/07 00:13:50;;;;;;;7.72;2.00;;;21.50;99.90;;;;;;5041303;28;20023;-68
2022/04/07 00:16:17;;;;;;;5.00;1.05;;;21.50;99.90;;;;;;5041527;28;20112;-69
2022/04/07 00:18:43;;;;;;;2.95;0.70;;;21.30;99.90;;;;;;5038957;28;20021;-69
2022/04/07 00:21:11;;;;;;;1.35;0.60;;;21.10;99.90;;;;;;5040010;28;20582;-69
2022/04/07 00:23:40;;;;;;;2.45;0.95;;;21.00;99.90;;;;;;5041188;28;20035;-68
2022/04/07 00:26:07;;;;;;;2.13;0.70;;;20.70;99.90;;;;;;5038545;28;20576;-68
2022/04/07 00:28:34;;;;;;;1.08;0.50;;;20.40;99.90;;;;;;5042703;28;20017;-69
2022/04/07 00:31:01;;;;;;;2.10;0.52;;;20.30;99.90;;;;;;5041723;28;20029;-70
2022/04/07 00:33:28;;;;;;;2.70;1.02;;;20.20;99.90;;;;;;5041770;28;20017;-69
2022/04/07 00:35:55;;;;;;;1.70;0.90;;;20.10;99.90;;;;;;5039123;28;20033;-69
2022/04/07 00:38:22;;;;;;;2.75;0.80;;;20.00;99.90;;;;;;5041774;28;20045;-69
2022/04/07 00:40:49;;;;;;;3.45;0.88;;;19.90;99.90;;;;;;5044661;28;20414;-69
2022/04/07 00:43:33;;;;;;;2.95;1.08;;;19.90;99.90;;;;;;5038997;28;20024;-67
2022/04/07 00:46:01;;;;;;;3.10;1.40;;;19.70;99.90;;;;;;5040056;28;20024;-68
2022/04/07 00:48:29;;;;;;;3.03;0.88;;;19.70;99.90;;;;;;5038937;28;20021;-67
2022/04/07 00:50:56;;;;;;;2.90;1.25;;;19.70;99.90;;;;;;5039812;28;20022;-67
2022/04/07 00:53:24;;;;;;;4.88;3.45;;;19.70;99.90;;;;;;5041068;28;20121;-67
2022/04/07 00:55:51;;;;;;;6.60;2.33;;;19.60;99.90;;;;;;5040592;28;20029;-68
2022/04/07 00:58:22;;;;;;;5.78;4.18;;;19.50;99.90;;;;;;5041337;28;20025;-70
2022/04/07 01:00:49;;;;;;;7.93;3.90;;;19.50;99.90;;;;;;5040224;28;20113;-68
2022/04/07 01:03:16;;;;;;;7.00;3.53;;;19.40;99.90;;;;;;5041659;28;20067;-69
2022/04/07 01:05:43;;;;;;;4.93;2.20;;;19.20;99.90;;;;;;5039699;28;20111;-69
2022/04/07 01:08:10;;;;;;;5.75;1.77;;;19.20;99.90;;;;;;5042510;28;20018;-68
2022/04/07 01:10:38;;;;;;;7.30;2.28;;;19.10;99.90;;;;;;5039514;28;20021;-68
2022/04/07 01:13:05;;;;;;;4.53;1.70;;;19.10;99.90;;;;;;5041422;28;20432;-68
2022/04/07 01:15:32;;;;;;;3.58;1.55;;;19.00;99.90;;;;;;5040230;28;20107;-70
2022/04/07 01:18:00;;;;;;;4.72;1.73;;;18.90;99.90;;;;;;5047877;28;20167;-70
2022/04/07 01:20:27;;;;;;;8.13;2.00;;;18.90;99.90;;;;;;5040362;28;20022;-69
2022/04/07 01:22:55;;;;;;;7.70;2.25;;;18.80;99.90;;;;;;5041179;28;20426;-69
2022/04/07 01:25:28;;;;;;;7.57;1.67;;;18.70;99.90;;;;;;5040411;28;20026;-69
2022/04/07 01:27:55;;;;;;;;;;;18.60;99.90;;;;;;5045343;28;20419;-69
2022/04/07 01:30:22;;;;;;;5.65;1.90;;;18.40;99.90;;;;;;5040671;28;19986;-68
2022/04/07 01:32:58;;;;;;;5.78;1.40;;;18.30;99.90;;;;;;5039184;28;20487;-69
2022/04/07 01:35:26;;;;;;;6.53;1.40;;;18.20;99.90;;;;;;5042172;28;20018;-69
2022/04/07 01:37:54;;;;;;;6.38;1.77;;;18.20;99.90;;;;;;5037166;28;20076;-69
2022/04/07 01:40:27;;;;;;;7.80;2.38;;;18.20;99.90;;;;;;5040385;28;20082;-68
2022/04/07 01:42:53;;;;;;;;;;;18.20;99.90;;;;;;5037511;28;20491;-67
2022/04/07 01:45:20;;;;;;;14.88;2.92;;;18.10;99.90;;;;;;5038795;28;19952;-68
2022/04/07 01:47:48;;;;;;;8.20;2.00;;;18.10;99.90;;;;;;5037339;28;20026;-70
2022/04/07 01:50:17;;;;;;;9.00;2.17;;;18.00;99.90;;;;;;5042558;28;20079;-69
2022/04/07 01:52:45;;;;;;;8.40;2.58;;;17.80;99.90;;;;;;5040728;28;20049;-69
2022/04/07 01:55:15;;;;;;;12.13;2.40;;;17.80;99.90;;;;;;5039700;28;20028;-69
2022/04/07 01:57:43;;;;;;;7.00;2.50;;;17.80;99.90;;;;;;5037015;28;20108;-69
2022/04/07 02:00:10;;;;;;;8.23;2.50;;;17.80;99.90;;;;;;5041316;28;20033;-70
2022/04/07 02:02:39;;;;;;;8.30;1.98;;;17.80;99.90;;;;;;5038746;28;20025;-70
2022/04/07 02:05:11;;;;;;;8.13;2.33;;;17.90;99.90;;;;;;5039665;28;20111;-69
2022/04/07 02:07:39;;;;;;;8.80;2.17;;;17.90;99.90;;;;;;5038073;28;20075;-70
2022/04/07 02:10:09;;;;;;;5.85;1.75;;;17.90;99.90;;;;;;5041151;28;20086;-69
2022/04/07 02:12:37;;;;;;;12.73;1.95;;;17.80;99.90;;;;;;5041778;28;20044;-69
2022/04/07 02:15:05;;;;;;;9.27;2.45;;;17.80;99.90;;;;;;5037726;28;20064;-70
2022/04/07 02:17:33;;;;;;;8.13;1.83;;;17.90;99.90;;;;;;5041754;28;20060;-69
2022/04/07 02:20:02;;;;;;;12.68;2.72;;;17.90;99.90;;;;;;5043443;28;20032;-68
2022/04/07 02:22:29;;;;;;;10.80;2.72;;;18.00;99.90;;;;;;5040651;28;20522;-69
2022/04/07 02:24:57;;;;;;;12.05;2.45;;;18.00;99.90;;;;;;5043205;28;20028;-69
2022/04/07 02:27:25;;;;;;;11.80;2.47;;;18.10;99.90;;;;;;5045854;28;20021;-68
2022/04/07 02:29:52;;;;;;;12.02;3.05;;;18.10;99.90;;;;;;5046543;28;20067;-70
2022/04/07 02:32:19;;;;;;;16.33;3.53;;;18.20;99.90;;;;;;5047575;28;20079;-70
2022/04/07 02:34:48;;;;;;;14.10;3.60;;;18.10;99.90;;;;;;5048295;28;20036;-71
2022/04/07 02:37:15;;;;;;;13.30;2.60;;;18.10;99.90;;;;;;5050893;28;20613;-70
2022/04/07 02:39:42;;;;;;;18.77;3.35;;;18.10;99.90;;;;;;5050862;28;20052;-67
2022/04/07 02:42:09;;;;;;;13.23;2.58;;;18.20;99.90;;;;;;5051176;28;20036;-69
2022/04/07 02:44:35;;;;;;;12.95;2.85;;;18.20;99.90;;;;;;5049243;28;20019;-69
2022/04/07 02:47:03;;;;;;;9.23;3.28;;;18.30;99.90;;;;;;5045090;28;20035;-70
2022/04/07 02:49:30;;;;;;;13.95;3.45;;;18.30;99.90;;;;;;5050743;28;20029;-71
2022/04/07 02:51:57;;;;;;;16.95;3.10;;;18.30;99.90;;;;;;5050968;28;20071;-70
2022/04/07 02:54:23;;;;;;;11.10;2.90;;;18.30;99.90;;;;;;5051383;28;20112;-70
2022/04/07 02:56:50;;;;;;;10.63;2.97;;;18.30;99.90;;;;;;5051279;28;20032;-70
2022/04/07 02:59:17;;;;;;;10.45;2.60;;;18.30;99.90;;;;;;5049810;28;20048;-69
2022/04/07 03:01:45;;;;;;;7.25;2.90;;;18.30;99.90;;;;;;5047122;28;20108;-69
2022/04/07 03:04:12;;;;;;;12.55;2.58;;;18.40;99.90;;;;;;5048927;28;20032;-67
2022/04/07 03:06:39;;;;;;;8.20;2.55;;;18.40;99.90;;;;;;5049852;28;20039;-68
2022/04/07 03:09:06;;;;;;;13.93;2.92;;;18.40;99.90;;;;;;5050854;28;20510;-67
2022/04/07 03:11:33;;;;;;;9.35;2.70;;;18.50;99.90;;;;;;5053407;28;20049;-68
2022/04/07 03:14:00;;;;;;;12.48;2.70;;;18.50;99.90;;;;;;5051044;28;20033;-66
2022/04/07 03:16:27;;;;;;;12.07;2.88;;;18.70;99.90;;;;;;5051129;28;20507;-67
2022/04/07 03:18:54;;;;;;;12.55;3.05;;;18.70;99.90;;;;;;5050583;28;20048;-68
2022/04/07 03:21:21;;;;;;;10.82;3.00;;;18.70;99.90;;;;;;5043972;28;20135;-70
2022/04/07 03:23:48;;;;;;;8.50;2.40;;;18.70;99.90;;;;;;5040260;28;20029;-68
2022/04/07 03:26:15;;;;;;;7.00;2.10;;;18.70;99.90;;;;;;5044571;28;20038;-70
2022/04/07 03:28:42;;;;;;;10.38;3.08;;;18.80;99.90;;;;;;5049952;28;20028;-69
2022/04/07 03:31:09;;;;;;;8.20;2.25;;;18.90;99.90;;;;;;5051111;28;20147;-69
2022/04/07 03:33:36;;;;;;;6.82;2.38;;;18.90;99.90;;;;;;5050950;28;20025;-70
2022/04/07 03:36:03;;;;;;;8.80;2.72;;;18.90;99.90;;;;;;4350127;28;10000632;-68
2022/04/07 03:38:30;;;;;;;10.35;2.95;;;18.90;99.90;;;;;;5044774;28;20053;-68
2022/04/07 03:40:57;;;;;;;9.93;2.13;;;18.90;99.90;;;;;;5047452;28;20418;-69
2022/04/07 03:43:24;;;;;;;12.60;2.85;;;18.90;99.90;;;;;;5044529;28;20032;-69
2022/04/07 03:45:51;;;;;;;10.00;2.47;;;19.00;99.90;;;;;;5046913;28;20048;-70
2022/04/07 03:48:18;;;;;;;9.32;2.70;;;19.00;99.90;;;;;;5047430;28;20159;-70
2022/04/07 03:50:45;;;;;;;10.80;2.83;;;19.10;99.90;;;;;;5048570;28;20100;-71
2022/04/07 03:53:12;;;;;;;10.98;3.30;;;19.00;99.90;;;;;;5047952;28;20091;-71
2022/04/07 03:55:39;;;;;;;17.02;3.58;;;19.00;99.90;;;;;;5045912;28;20503;-69
2022/04/07 03:58:06;;;;;;;7.50;2.40;;;19.00;99.90;;;;;;5047759;28;20044;-69
2022/04/07 04:00:33;;;;;;;10.70;3.38;;;19.00;99.90;;;;;;5048574;28;20028;-68
2022/04/07 04:03:00;;;;;;;12.80;3.20;;;19.00;99.90;;;;;;5047866;28;20416;-68
2022/04/07 04:05:27;;;;;;;10.68;3.58;;;18.90;99.90;;;;;;5046877;28;20031;-69
2022/04/07 04:07:56;;;;;;;13.00;2.83;;;18.90;99.90;;;;;;5046721;28;20107;-70
2022/04/07 04:10:23;;;;;;;9.27;2.83;;;18.90;99.90;;;;;;5046694;28;20062;-68
2022/04/07 04:12:50;;;;;;;11.38;3.30;;;19.00;99.90;;;;;;5046747;28;20468;-69
2022/04/07 04:15:18;;;;;;;10.40;3.30;;;19.10;99.90;;;;;;5047182;28;20025;-69
2022/04/07 04:17:45;;;;;;;11.63;3.33;;;19.10;99.90;;;;;;5047120;28;20021;-68
2022/04/07 04:20:12;;;;;;;10.90;3.08;;;19.10;99.90;;;;;;5043769;28;20025;-68
2022/04/07 04:22:39;;;;;;;12.13;3.95;;;19.10;99.90;;;;;;5041098;28;20032;-68
2022/04/07 04:25:08;;;;;;;12.25;3.53;;;19.10;99.90;;;;;;5037708;28;20116;-67
2022/04/07 04:27:35;;;;;;;9.85;3.00;;;19.10;99.90;;;;;;5042065;28;20826;-68
2022/04/07 04:30:02;;;;;;;16.33;3.83;;;19.10;99.90;;;;;;5047925;28;20035;-68
2022/04/07 04:32:29;;;;;;;14.13;3.20;;;19.10;99.90;;;;;;5048449;28;20025;-68
2022/04/07 04:34:56;;;;;;;14.23;3.42;;;19.10;99.90;;;;;;5046338;28;20029;-68
2022/04/07 04:37:26;;;;;;;10.27;3.30;;;19.20;99.90;;;;;;5039397;28;20464;-68
2022/04/07 04:39:55;;;;;;;15.57;4.43;;;19.30;99.90;;;;;;5046216;28;20028;-68
2022/04/07 04:42:22;;;;;;;14.63;4.25;;;19.30;99.90;;;;;;5046291;28;20044;-67
2022/04/07 04:44:50;;;;;;;11.50;4.60;;;19.30;99.90;;;;;;5044364;28;20033;-68
2022/04/07 04:47:19;;;;;;;14.23;5.40;;;19.30;99.90;;;;;;5046202;28;20028;-69
2022/04/07 04:49:46;;;;;;;17.98;7.88;;;19.30;99.90;;;;;;5045926;28;20753;-68
2022/04/07 04:52:13;;;;;;;13.82;7.78;;;19.30;99.90;;;;;;5046169;28;20032;-69
2022/04/07 04:54:41;;;;;;;15.63;5.75;;;19.30;99.90;;;;;;5045822;28;20017;-69
2022/04/07 04:57:08;;;;;;;18.00;5.38;;;19.20;99.90;;;;;;5043885;28;20021;-69
2022/04/07 04:59:35;;;;;;;15.95;3.97;;;19.20;99.90;;;;;;5039242;28;20025;-68
2022/04/07 05:02:04;;;;;;;17.02;6.25;;;19.20;99.90;;;;;;5039842;28;20025;-69
2022/04/07 05:04:31;;;;;;;17.08;3.85;;;19.20;99.90;;;;;;5037905;28;20028;-69
2022/04/07 05:06:59;;;;;;;17.75;3.58;;;19.10;99.90;;;;;;5059337;28;20162;-69
2022/04/07 05:09:25;;;;;;;16.00;3.70;;;19.10;99.90;;;;;;5039545;28;20297;-69
2022/04/07 05:11:52;;;;;;;10.93;3.65;;;19.10;99.90;;;;;;5036365;28;20022;-69
2022/04/07 05:14:19;;;;;;;12.38;3.55;;;19.10;99.90;;;;;;5046258;28;20029;-68
2022/04/07 05:16:46;;;;;;;16.70;2.90;;;19.00;99.90;;;;;;5042829;28;20287;-68
2022/04/07 05:19:13;;;;;;;11.30;2.90;;;19.10;99.90;;;;;;5045996;28;20056;-67
2022/04/07 05:21:40;;;;;;;12.98;3.40;;;19.10;99.90;;;;;;5045446;28;20025;-68
2022/04/07 05:24:07;;;;;;;15.85;3.95;;;19.10;99.90;;;;;;5042283;28;20535;-68
2022/04/07 05:26:34;;;;;;;10.02;3.47;;;19.10;99.90;;;;;;5036204;28;20642;-68
2022/04/07 05:29:01;;;;;;;16.52;4.05;;;19.20;99.90;;;;;;5040696;28;20114;-68
2022/04/07 05:31:28;;;;;;;17.25;4.50;;;19.20;99.90;;;;;;5040601;28;20478;-68
2022/04/07 05:33:55;;;;;;;19.05;7.45;;;19.20;99.90;;;;;;5036987;28;20506;-69
2022/04/07 05:36:22;;;;;;;19.40;7.80;;;19.30;99.90;;;;;;5043069;28;20075;-69
2022/04/07 05:38:49;;;;;;;25.10;7.85;;;19.20;99.90;;;;;;5039913;28;20053;-70
2022/04/07 05:41:15;;;;;;;15.02;5.03;;;19.20;99.90;;;;;;5043150;28;20039;-64
2022/04/07 05:43:42;;;;;;;18.88;5.50;;;19.20;99.90;;;;;;5039290;28;20025;-67
2022/04/07 05:46:09;;;;;;;15.65;4.38;;;19.10;99.90;;;;;;5036743;28;20033;-70
2022/04/07 05:48:36;;;;;;;20.20;8.32;;;19.00;99.90;;;;;;5037469;28;20113;-68
2022/04/07 05:51:03;;;;;;;31.98;9.30;;;18.90;99.90;;;;;;5040263;28;20471;-68
2022/04/07 05:53:30;;;;;;;19.35;7.53;;;18.80;99.90;;;;;;5039018;28;20028;-68
2022/04/07 05:55:58;;;;;;;18.42;7.80;;;18.80;99.90;;;;;;5039184;28;20035;-66
2022/04/07 05:58:26;;;;;;;29.58;11.40;;;18.70;99.90;;;;;;5040351;28;20120;-69
2022/04/07 06:00:53;;;;;;;26.20;11.10;;;18.70;99.90;;;;;;5041215;28;20056;-66
2022/04/07 06:03:20;;;;;;;21.92;9.13;;;18.70;99.90;;;;;;5037119;28;20559;-68
2022/04/07 06:05:52;;;;;;;13.63;7.53;;;18.60;99.90;;;;;;5041740;28;20104;-68
2022/04/07 06:08:23;;;;;;;23.20;10.60;;;18.60;99.90;;;;;;5042711;28;20025;-68
2022/04/07 06:10:50;;;;;;;24.10;10.63;;;18.60;99.90;;;;;;5040083;28;20037;-68
2022/04/07 06:13:17;;;;;;;16.83;8.52;;;18.60;99.90;;;;;;5048420;28;20021;-65
2022/04/07 06:15:44;;;;;;;18.80;6.00;;;18.60;99.90;;;;;;5040683;28;20025;-67
2022/04/07 06:18:11;;;;;;;15.93;6.03;;;18.60;99.90;;;;;;5041656;28;20055;-68
2022/04/07 06:20:37;;;;;;;22.75;12.30;;;18.50;99.90;;;;;;5041372;28;20021;-68
2022/04/07 06:23:05;;;;;;;21.77;5.63;;;18.40;99.90;;;;;;5035702;28;20427;-68
2022/04/07 06:25:31;;;;;;;12.02;3.22;;;18.40;99.90;;;;;;5037734;28;20213;-67
2022/04/07 06:28:02;;;;;;;16.50;4.38;;;18.40;99.90;;;;;;5033311;28;20077;-68
2022/04/07 06:30:29;;;;;;;15.20;5.53;;;18.40;99.90;;;;;;5035871;28;20036;-68
2022/04/07 06:32:56;;;;;;;19.63;6.03;;;18.40;99.90;;;;;;5036083;28;20021;-68
2022/04/07 06:35:24;;;;;;;14.30;5.15;;;18.30;99.90;;;;;;5036197;28;20384;-66
2022/04/07 06:37:53;;;;;;;12.93;4.00;;;18.30;99.90;;;;;;5035313;28;20041;-68
2022/04/07 06:40:21;;;;;;;12.50;3.90;;;18.20;99.90;;;;;;5036432;28;20489;-68
2022/04/07 06:42:53;;;;;;;15.48;7.45;;;18.20;99.90;;;;;;5035870;28;20425;-69
2022/04/07 06:45:20;;;;;;;15.13;7.57;;;18.10;99.90;;;;;;5032829;28;20536;-68
2022/04/07 06:47:47;;;;;;;18.25;6.22;;;18.10;99.90;;;;;;5037140;28;20033;-70
2022/04/07 06:50:17;;;;;;;16.00;3.20;;;18.10;99.90;;;;;;5040098;28;20058;-70
2022/04/07 06:52:44;;;;;;;16.65;4.45;;;18.00;99.90;;;;;;5037044;28;20108;-67
2022/04/07 06:55:16;;;;;;;14.65;3.75;;;18.00;99.90;;;;;;5031243;28;20037;-67
2022/04/07 06:58:01;;;;;;;22.80;4.00;;;17.90;99.90;;;;;;5038363;28;20056;-63
2022/04/07 07:00:34;;;;;;;17.75;4.32;;;17.80;99.90;;;;;;5039115;28;20031;-62
2022/04/07 07:03:03;;;;;;;14.00;4.30;;;17.80;99.90;;;;;;5038378;28;20307;-64
2022/04/07 07:05:32;;;;;;;15.90;4.40;;;17.70;99.90;;;;;;5038643;28;20707;-63
2022/04/07 07:08:17;;;;;;;18.95;4.07;;;17.70;99.90;;;;;;5038418;28;20659;-64
2022/04/07 07:10:46;;;;;;;20.83;4.57;;;17.70;99.90;;;;;;5039495;28;20480;-64
2022/04/07 07:13:16;;;;;;;20.00;4.28;;;17.60;99.90;;;;;;5038733;28;20446;-62
2022/04/07 07:15:44;;;;;;;16.67;4.25;;;17.60;99.90;;;;;;5039448;28;20060;-64
2022/04/07 07:18:11;;;;;;;16.27;3.60;;;17.60;99.90;;;;;;5039836;28;20477;-63
2022/04/07 07:20:38;;;;;;;21.45;4.50;;;17.60;99.90;;;;;;5038646;28;20104;-64
2022/04/07 07:23:06;;;;;;;18.67;3.97;;;17.50;99.90;;;;;;5039239;28;20036;-63
2022/04/07 07:25:33;;;;;;;18.40;3.83;;;17.50;99.90;;;;;;5038024;28;20025;-63
2022/04/07 07:28:01;;;;;;;13.52;3.80;;;17.60;99.90;;;;;;5039591;28;20110;-64
2022/04/07 07:30:31;;;;;;;16.42;4.15;;;17.60;99.90;;;;;;5038665;28;20032;-63
2022/04/07 07:32:58;;;;;;;16.50;3.78;;;17.60;99.90;;;;;;5037713;28;20064;-63
2022/04/07 07:35:26;;;;;;;20.75;4.05;;;17.60;99.90;;;;;;5039565;28;20088;-62
2022/04/07 07:37:55;;;;;;;26.15;4.13;;;17.60;99.90;;;;;;5037810;28;20044;-67
2022/04/07 07:40:30;;;;;;;25.35;4.78;;;17.60;99.90;;;;;;5037476;28;20028;-67
2022/04/07 07:42:59;;;;;;;22.27;4.50;;;17.60;99.90;;;;;;5037304;28;20024;-68
2022/04/07 07:45:28;;;;;;;18.90;4.90;;;17.70;99.90;;;;;;5039315;28;20091;-64
2022/04/07 07:47:55;;;;;;;18.75;4.43;;;17.70;99.90;;;;;;5039840;28;20043;-66
2022/04/07 07:50:22;;;;;;;15.23;4.22;;;17.70;99.90;;;;;;5037062;28;20024;-67
2022/04/07 07:52:50;;;;;;;21.67;5.05;;;17.70;99.90;;;;;;5038285;28;20661;-66
2022/04/07 07:55:17;;;;;;;18.63;4.85;;;17.70;99.90;;;;;;5036348;28;20099;-73
2022/04/07 07:57:44;;;;;;;26.92;4.60;;;17.70;99.90;;;;;;5038039;28;20040;-67
2022/04/07 08:00:15;;;;;;;24.77;4.53;;;17.80;99.90;;;;;;5038048;28;20032;-68
2022/04/07 08:02:43;;;;;;;21.58;4.72;;;17.70;99.90;;;;;;5037361;28;20133;-66
2022/04/07 08:05:10;;;;;;;19.15;4.57;;;17.80;99.90;;;;;;5040249;28;20078;-72
2022/04/07 08:07:41;;;;;;;25.73;5.10;;;17.80;99.90;;;;;;5042528;28;20106;-67
2022/04/07 08:10:10;;;;;;;23.75;4.45;;;17.80;99.90;;;;;;5037639;28;20076;-66
2022/04/07 08:12:39;;;;;;;15.60;4.53;;;17.80;99.90;;;;;;5041144;28;20491;-65
2022/04/07 08:15:06;;;;;;;21.90;4.70;;;17.80;99.90;;;;;;5039390;28;20083;-67
2022/04/07 08:17:34;;;;;;;16.85;4.32;;;17.80;99.90;;;;;;5039518;28;20119;-72
2022/04/07 08:20:03;;;;;;;19.52;4.03;;;17.90;99.90;;;;;;5040925;28;20055;-68
2022/04/07 08:22:30;;;;;;;23.30;4.43;;;17.90;99.90;;;;;;5039044;28;20117;-65
2022/04/07 08:24:57;;;;;;;25.52;5.28;;;17.90;99.90;;;;;;5038981;28;20033;-65
2022/04/07 08:27:24;;;;;;;18.30;4.38;;;17.80;99.90;;;;;;5041799;28;20579;-65
2022/04/07 08:29:52;;;;;;;22.38;5.05;;;17.80;99.90;;;;;;5039951;28;20040;-67
2022/04/07 08:32:19;;;;;;;16.45;3.83;;;17.90;99.90;;;;;;5041189;28;20108;-66
2022/04/07 08:34:47;;;;;;;24.13;9.55;;;17.80;99.90;;;;;;5039418;28;20375;-63
2022/04/07 08:37:14;;;;;;;20.60;8.18;;;17.80;99.90;;;;;;5039800;28;20045;-67
2022/04/07 08:39:41;;;;;;;28.20;9.25;;;17.80;99.90;;;;;;5039283;28;20026;-69
2022/04/07 08:42:08;;;;;;;23.52;10.00;;;17.80;99.90;;;;;;5038958;28;20025;-67
2022/04/07 08:44:35;;;;;;;26.35;7.45;;;17.70;99.90;;;;;;5039656;28;20487;-68
2022/04/07 08:47:03;;;;;;;23.65;6.63;;;17.80;99.90;;;;;;5041437;28;20029;-68
2022/04/07 08:49:31;;;;;;;24.05;8.27;;;17.80;99.90;;;;;;5038869;28;20024;-69
2022/04/07 08:51:59;;;;;;;27.88;10.73;;;17.80;99.90;;;;;;5040306;28;20488;-75
2022/04/07 08:54:26;;;;;;;29.48;9.13;;;17.80;99.90;;;;;;5038018;28;20502;-69
2022/04/07 08:56:53;;;;;;;15.80;5.97;;;17.80;99.90;;;;;;5039774;28;20695;-68
2022/04/07 08:59:21;;;;;;;16.85;5.32;;;17.70;99.90;;;;;;5042467;28;20024;-70
2022/04/07 09:01:48;;;;;;;18.85;5.03;;;17.80;99.90;;;;;;5039822;28;20056;-69
2022/04/07 09:04:15;;;;;;;19.98;5.00;;;17.70;99.90;;;;;;5039609;28;20459;-65
2022/04/07 09:06:42;;;;;;;15.02;4.20;;;17.70;99.90;;;;;;5039798;28;20047;-65
2022/04/07 09:09:18;;;;;;;19.98;5.07;;;17.60;99.90;;;;;;5042694;28;20543;-67
2022/04/07 09:11:45;;;;;;;17.08;4.93;;;17.70;99.90;;;;;;5040634;28;20021;-65
2022/04/07 09:14:14;;;;;;;18.92;5.40;;;17.70;99.90;;;;;;5039872;28;20120;-65
2022/04/07 09:16:42;;;;;;;17.83;3.78;;;17.70;99.90;;;;;;5041871;28;20195;-68
2022/04/07 09:19:09;;;;;;;20.08;4.03;;;17.70;99.90;;;;;;5040139;28;20028;-67
2022/04/07 09:21:38;;;;;;;21.10;9.05;;;17.80;99.90;;;;;;5037970;28;20427;-67
2022/04/07 09:24:07;;;;;;;26.20;9.95;;;17.80;99.90;;;;;;5040000;28;20033;-66
2022/04/07 09:26:44;;;;;;;18.95;4.68;;;17.70;99.90;;;;;;5038421;28;20155;-66
2022/04/07 09:29:14;;;;;;;25.60;4.82;;;17.80;99.90;;;;;;5040560;28;20029;-66
2022/04/07 09:31:51;;;;;;;21.80;5.60;;;17.90;99.90;;;;;;5038591;28;20249;-66
2022/04/07 09:34:38;;;;;;;23.75;4.32;;;17.80;99.90;;;;;;5039146;28;20865;-67
2022/04/07 09:37:09;;;;;;;18.88;4.72;;;17.90;99.90;;;;;;5038769;28;20166;-67
2022/04/07 09:39:40;;;;;;;13.77;4.25;;;17.90;99.90;;;;;;5037700;28;20091;-70
2022/04/07 09:42:25;;;;;;;14.07;3.90;;;17.90;99.90;;;;;;5038808;28;20111;-71
2022/04/07 09:45:01;;;;;;;18.63;4.97;;;17.90;99.90;;;;;;5036625;28;20464;-70
2022/04/07 09:47:39;;;;;;;19.10;3.70;;;17.90;99.90;;;;;;5040499;28;20060;-69
2022/04/07 09:50:09;;;;;;;21.52;4.57;;;17.80;99.90;;;;;;5039012;28;20020;-69
2022/04/07 09:52:40;;;;;;;21.15;3.60;;;17.90;99.90;;;;;;5038412;28;20086;-73
2022/04/07 09:55:08;;;;;;;22.02;3.95;;;17.90;99.90;;;;;;5038040;28;20210;-72
2022/04/07 09:57:36;;;;;;;19.70;4.20;;;17.90;99.90;;;;;;5037988;28;20033;-73
2022/04/07 10:00:05;;;;;;;22.45;3.60;;;18.00;99.90;;;;;;5038390;28;20160;-72
2022/04/07 10:02:33;;;;;;;14.00;3.47;;;18.00;99.90;;;;;;4685315;28;9999985;-72
2022/04/07 10:05:02;;;;;;;11.55;2.97;;;18.10;99.90;;;;;;5037833;28;20059;-72
2022/04/07 10:07:29;;;;;;;18.50;3.50;;;18.10;99.90;;;;;;5035343;28;20025;-69
2022/04/07 10:09:57;;;;;;;15.82;3.97;;;18.10;99.90;;;;;;5035260;28;20079;-73
2022/04/07 10:12:25;;;;;;;20.55;3.50;;;18.00;99.90;;;;;;5034826;28;20108;-72
2022/04/07 10:14:54;;;;;;;13.50;3.47;;;18.00;99.90;;;;;;5037977;28;20111;-72
2022/04/07 10:17:22;;;;;;;16.95;4.03;;;18.00;99.90;;;;;;5038763;28;20021;-72
2022/04/07 10:20:07;;;;;;;15.85;4.25;;;18.00;99.90;;;;;;5036622;28;20510;-68
2022/04/07 10:22:49;;;;;;;17.92;3.42;;;18.00;99.90;;;;;;5036299;28;20024;-73
2022/04/07 10:25:17;;;;;;;15.90;3.33;;;18.00;99.90;;;;;;5048703;28;20039;-72
2022/04/07 10:27:51;;;;;;;15.50;3.70;;;18.10;99.90;;;;;;5038116;28;20031;-68
2022/04/07 10:30:18;;;;;;;13.13;3.22;;;18.00;99.90;;;;;;5037023;28;20017;-71
2022/04/07 10:32:47;;;;;;;12.05;3.90;;;18.00;99.90;;;;;;5036011;28;20021;-71
2022/04/07 10:35:39;;;;;;;13.60;3.00;;;18.00;99.90;;;;;;5035276;28;20388;-70
2022/04/07 10:38:10;;;;;;;15.50;3.47;;;18.00;99.90;;;;;;4708995;22;10002183;-69
2022/04/07 10:40:51;;;;;;;15.15;3.92;;;18.00;99.90;;;;;;4998216;28;20026;-69
2022/04/07 10:43:25;;;;;;;14.00;3.47;;;18.10;99.90;;;;;;4997769;28;20100;-68
2022/04/07 10:46:14;;;;;;;15.50;3.70;;;18.10;99.90;;;;;;4998186;28;20109;-70
2022/04/07 10:49:20;;;;;;;12.30;3.53;;;18.00;99.90;;;;;;4935603;28;20494;-70
2022/04/07 10:51:58;;;;;;;18.42;4.15;;;18.10;99.90;;;;;;4914985;29;21235;-71
2022/04/07 10:54:29;;;;;;;14.40;3.03;;;18.00;99.90;;;;;;4916090;29;20865;-70
2022/04/07 10:57:01;;;;;;;14.35;3.38;;;18.00;99.90;;;;;;4912384;29;20102;-70
2022/04/07 10:59:31;;;;;;;15.13;3.78;;;18.00;99.90;;;;;;4915259;29;20144;-70
2022/04/07 11:02:06;;;;;;;17.75;3.83;;;17.90;99.90;;;;;;4919140;29;20031;-70
2022/04/07 11:04:40;;;;;;;15.43;3.92;;;17.90;99.90;;;;;;4913928;29;20126;-70
2022/04/07 11:07:18;;;;;;;18.88;4.38;;;17.90;99.90;;;;;;4914739;29;20047;-69
2022/04/07 11:10:00;;;;;;;11.10;3.55;;;17.90;99.90;;;;;;4914424;29;20028;-69
2022/04/07 11:12:32;;;;;;;19.20;3.53;;;17.90;99.90;;;;;;4916690;29;20040;-67
2022/04/07 11:15:07;;;;;;;11.93;3.20;;;17.90;99.90;;;;;;4915283;29;20051;-68
2022/04/07 11:17:46;;;;;;;13.30;3.72;;;17.90;99.90;;;;;;4914338;29;20067;-67
2022/04/07 11:20:21;;;;;;;19.90;3.38;;;17.90;99.90;;;;;;4917939;29;20084;-68
2022/04/07 11:22:54;;;;;;;23.15;3.65;;;17.80;99.90;;;;;;4915105;29;20058;-67
2022/04/07 11:25:43;;;;;;;19.80;4.38;;;17.80;99.90;;;;;;4917237;29;20036;-68
2022/04/07 11:28:27;;;;;;;13.25;4.13;;;17.90;99.90;;;;;;4990681;28;20066;-70
2022/04/07 11:30:56;;;;;;;16.27;3.42;;;17.90;99.90;;;;;;5001839;28;20033;-68
2022/04/07 11:33:26;;;;;;;10.40;3.30;;;17.90;99.90;;;;;;5003530;28;20611;-71
2022/04/07 11:36:04;;;;;;;14.73;3.30;;;17.80;99.90;;;;;;5003672;28;20075;-71
2022/04/07 11:38:33;;;;;;;16.42;3.10;;;17.90;99.90;;;;;;4998139;28;20568;-69
2022/04/07 11:41:04;;;;;;;13.02;3.00;;;17.90;99.90;;;;;;5005251;28;20319;-72
2022/04/07 11:43:32;;;;;;;13.00;2.72;;;17.90;99.90;;;;;;5000490;28;20096;-70
2022/04/07 11:46:00;;;;;;;16.88;3.00;;;17.90;99.90;;;;;;5000947;28;20579;-70
2022/04/07 11:48:34;;;;;;;20.98;3.80;;;17.80;99.90;;;;;;5000744;28;20022;-71
2022/04/07 11:51:17;;;;;;;18.17;3.75;;;17.90;99.90;;;;;;5001604;28;20393;-70
2022/04/07 11:53:55;;;;;;;12.20;3.45;;;17.80;99.90;;;;;;4995613;28;20572;-69
2022/04/07 11:56:32;;;;;;;14.85;3.83;;;17.80;99.90;;;;;;5005008;28;20098;-71
2022/04/07 11:59:06;;;;;;;14.45;3.47;;;17.80;99.90;;;;;;5002664;28;20117;-69
2022/04/07 12:01:36;;;;;;;17.05;3.60;;;17.90;99.90;;;;;;5004290;28;20026;-72
2022/04/07 12:04:05;;;;;;;18.48;4.57;;;17.90;99.90;;;;;;5001631;28;20033;-72
2022/04/07 12:06:35;;;;;;;16.20;2.85;;;17.90;99.90;;;;;;4998080;28;20286;-72
2022/04/07 12:09:04;;;;;;;17.30;3.38;;;17.90;99.90;;;;;;4987120;28;20404;-72
2022/04/07 12:11:34;;;;;;;14.90;3.00;;;17.80;99.90;;;;;;4986157;28;20403;-72
2022/04/07 12:14:06;;;;;;;15.57;3.65;;;17.90;99.90;;;;;;5002446;28;20025;-71
2022/04/07 12:16:33;;;;;;;11.48;2.50;;;17.90;99.90;;;;;;4984902;28;20033;-69
2022/04/07 12:19:02;;;;;;;9.80;3.13;;;17.90;99.90;;;;;;4997969;28;20038;-71
2022/04/07 12:21:49;;;;;;;10.32;2.50;;;17.90;99.90;;;;;;5003472;28;20358;-73
2022/04/07 12:24:16;;;;;;;15.48;3.50;;;17.90;99.90;;;;;;5007328;28;20029;-71
2022/04/07 12:26:49;;;;;;;13.75;3.22;;;17.90;99.90;;;;;;5003124;28;20026;-70
2022/04/07 12:29:23;;;;;;;14.73;3.33;;;17.90;99.90;;;;;;5005445;28;20336;-72
2022/04/07 12:32:06;;;;;;;16.45;3.22;;;18.00;99.90;;;;;;5006538;28;20029;-72
2022/04/07 12:34:51;;;;;;;17.15;3.17;;;18.00;99.90;;;;;;5005735;28;20042;-69
2022/04/07 12:37:38;;;;;;;12.25;3.35;;;17.90;99.90;;;;;;5002612;28;20087;-67
2022/04/07 12:40:09;;;;;;;17.20;3.50;;;17.90;99.90;;;;;;4998678;28;20236;-67
2022/04/07 12:42:50;;;;;;;13.80;3.60;;;17.90;99.90;;;;;;5007330;28;20091;-72
2022/04/07 12:45:17;;;;;;;13.52;4.25;;;17.90;99.90;;;;;;5005101;28;20117;-70
2022/04/07 12:48:05;;;;;;;15.40;3.13;;;17.90;99.90;;;;;;5007959;28;20026;-72
2022/04/07 12:50:35;;;;;;;16.63;3.30;;;17.90;99.90;;;;;;5006859;28;20064;-69